Time;durP1;ratioP1;P1;durP2;ratioP2;P2;SDS_P1;SDS_P2;PMS_P1;PMS_P2;Temp;Humidity;BMP_temperature;BMP_pressure;BME280_temperature;BME280_humidity;BME280_pressure;Samples;Min_cycle;Max_cycle;Signal;HPM_P1;HPM_P2
2022/12/31 00:48:01;;;;;;;;;;;;;;;;;;;;;
2022/12/31 02:10:01;;;;;;;;;;;;;;;;;;;;;
2022/12/31 02:38:26;;;;;;;;;;;;;;;;;;;;;
2022/12/31 03:05:31;;;;;;;;;;;;;;;;;;;;;
2022/12/31 04:04:03;;;;;;;7.13;1.25;;;10.80;99.90;;;;;;6248633;22;20038;-88
2022/12/31 04:07:21;;;;;;;5.20;0.90;;;10.20;99.90;;;;;;6198595;23;20432;-89
2022/12/31 04:11:17;;;;;;;5.88;1.10;;;10.30;99.90;;;;;;6182096;22;20076;-88
2022/12/31 04:14:11;;;;;;;5.63;1.20;;;10.70;99.90;;;;;;6244400;22;20038;-89
2022/12/31 04:25:15;;;;;;;;;;;;;;;;;;;;;
2022/12/31 04:28:38;;;;;;;9.60;1.80;;;10.60;99.90;;;;;;6200253;22;20020;-88
2022/12/31 04:32:15;;;;;;;9.57;1.70;;;10.60;99.90;;;;;;6263341;22;20432;-88
2022/12/31 04:39:12;;;;;;;;;;;;;;;;;;;;;
2022/12/31 04:43:19;;;;;;;9.68;2.50;;;10.60;99.90;;;;;;6262427;22;20022;-88
2022/12/31 04:49:48;;;;;;;12.18;2.80;;;10.70;99.90;;;;;;6262154;22;20065;-88
2022/12/31 04:52:22;;;;;;;8.38;2.03;;;10.80;99.90;;;;;;6248875;22;20020;-87
2022/12/31 04:55:19;;;;;;;9.45;1.73;;;10.70;99.90;;;;;;6237931;22;20028;-87
2022/12/31 05:02:46;;;;;;;6.47;1.30;;;10.50;99.90;;;;;;6193046;22;20023;-88
2022/12/31 05:05:48;;;;;;;;;;;;;;;;;;;;;
2022/12/31 05:09:27;;;;;;;;;;;;;;;;;;;;;
2022/12/31 05:13:06;;;;;;;9.48;1.42;;;10.50;99.90;;;;;;6203467;23;20032;-87
2022/12/31 05:16:12;;;;;;;6.38;1.20;;;10.30;99.90;;;;;;6215085;23;20051;-88
2022/12/31 05:19:39;;;;;;;10.32;1.73;;;10.60;99.90;;;;;;6263296;22;20020;-86
2022/12/31 05:22:47;;;;;;;7.53;2.03;;;10.60;99.90;;;;;;6258582;22;20440;-86
2022/12/31 05:26:04;;;;;;;8.38;1.85;;;10.30;99.90;;;;;;6250665;22;20024;-86
2022/12/31 05:28:59;;;;;;;;;;;;;;;;;;;;;
2022/12/31 05:40:37;;;;;;;8.90;2.13;;;10.50;99.90;;;;;;6241271;22;20102;-88
2022/12/31 05:46:46;;;;;;;;;;;10.50;99.90;;;;;;6264768;22;20024;-89
2022/12/31 05:50:34;;;;;;;;;;;;;;;;;;;;;
2022/12/31 06:12:21;;;;;;;6.30;1.60;;;10.90;99.90;;;;;;6205940;23;20139;-87
2022/12/31 06:14:57;;;;;;;9.43;1.63;;;10.40;99.90;;;;;;6207855;23;20519;-87
2022/12/31 06:17:54;;;;;;;9.40;1.35;;;10.40;99.90;;;;;;6252703;22;20031;-87
2022/12/31 06:20:19;;;;;;;6.22;1.17;;;10.40;99.90;;;;;;6338300;22;20017;-88
2022/12/31 06:22:45;;;;;;;8.23;1.33;;;10.50;99.90;;;;;;6342183;22;20068;-87
2022/12/31 06:25:19;;;;;;;5.38;1.10;;;10.40;99.90;;;;;;6335320;22;20009;-89
2022/12/31 06:28:23;;;;;;;7.72;1.63;;;10.10;99.90;;;;;;6369827;22;20029;-88
2022/12/31 06:31:17;;;;;;;5.40;1.27;;;10.40;99.90;;;;;;6343582;22;20093;-89
2022/12/31 06:33:57;;;;;;;3.38;0.90;;;10.30;99.90;;;;;;6343041;22;20049;-88
2022/12/31 06:36:34;;;;;;;4.97;0.70;;;10.30;99.90;;;;;;6309360;22;20087;-88
2022/12/31 06:39:50;;;;;;;;;;;;;;;;;;;;;
2022/12/31 06:46:10;;;;;;;5.07;0.80;;;10.20;99.90;;;;;;6321425;22;20049;-89
2022/12/31 06:49:39;;;;;;;8.25;0.85;;;10.10;99.90;;;;;;6363033;22;20071;-89
2022/12/31 06:55:44;;;;;;;6.40;0.68;;;10.10;99.90;;;;;;6369173;22;20071;-89
2022/12/31 07:19:16;;;;;;;;;;;;;;;;;;;;;
2022/12/31 07:22:48;;;;;;;;;;;;;;;;;;;;;
2022/12/31 07:37:19;;;;;;;;;;;;;;;;;;;;;
2022/12/31 07:45:24;;;;;;;9.65;4.82;;;10.10;99.90;;;;;;6364038;22;20114;-88
2022/12/31 07:52:19;;;;;;;7.50;3.35;;;10.20;99.90;;;;;;6260335;22;20033;-91
2022/12/31 08:21:11;;;;;;;;;;;;;;;;;;;;;
2022/12/31 08:28:41;;;;;;;3.53;1.48;;;10.10;99.90;;;;;;6268788;22;20055;-92
2022/12/31 08:31:46;;;;;;;4.15;1.90;;;10.20;99.90;;;;;;6243695;22;20224;-93
2022/12/31 08:34:58;;;;;;;;;;;;;;;;;;;;;
2022/12/31 08:37:50;;;;;;;;;;;;;;;;;;;;;
2022/12/31 08:40:28;;;;;;;4.20;2.08;;;10.20;99.90;;;;;;6342545;22;20019;-88
2022/12/31 08:43:16;;;;;;;3.65;1.70;;;10.40;99.90;;;;;;6347971;22;20432;-90
2022/12/31 08:50:49;;;;;;;;;;;;;;;;;;;;;
2022/12/31 08:58:08;;;;;;;;;;;;;;;;;;;;;
2022/12/31 10:03:46;;;;;;;3.75;1.10;;;12.20;99.90;;;;;;6242328;22;20092;-88
2022/12/31 10:26:54;;;;;;;5.90;1.17;;;12.60;99.90;;;;;;6081184;23;20030;-89
2022/12/31 10:51:52;;;;;;;7.45;0.90;;;13.00;99.90;;;;;;6238099;23;20047;-90
2022/12/31 11:10:56;;;;;;;;;;;;;;;;;;;;;
2022/12/31 11:39:05;;;;;;;11.95;1.90;;;13.40;99.90;;;;;;6238340;22;20028;-88
2022/12/31 11:50:12;;;;;;;12.77;1.92;;;13.40;99.90;;;;;;6121406;23;20028;-88
2022/12/31 11:53:56;;;;;;;10.07;2.00;;;13.30;99.90;;;;;;6207664;23;20024;-89
2022/12/31 12:26:28;;;;;;;9.90;1.55;;;13.40;99.90;;;;;;6167105;22;20035;-89
2022/12/31 12:28:56;;;;;;;9.68;1.80;;;13.40;99.90;;;;;;6215512;22;20051;-89
2022/12/31 12:32:11;;;;;;;13.10;2.05;;;13.30;99.90;;;;;;6216242;22;20435;-90
2022/12/31 12:35:18;;;;;;;17.00;2.50;;;13.40;99.90;;;;;;6188808;22;20058;-89
2022/12/31 12:38:22;;;;;;;10.32;1.90;;;12.80;99.90;;;;;;6237419;22;20055;-87
2022/12/31 12:41:15;;;;;;;13.05;1.90;;;13.40;99.90;;;;;;6235467;22;20022;-88
2022/12/31 12:44:40;;;;;;;;;;;;;;;;;;;;;
2022/12/31 12:47:30;;;;;;;;;;;;;;;;;;;;;
2022/12/31 12:50:24;;;;;;;11.02;2.05;;;13.40;99.90;;;;;;6260576;22;20010;-87
2022/12/31 12:53:37;;;;;;;11.48;2.10;;;13.30;99.90;;;;;;6232772;22;20013;-87
2022/12/31 13:01:07;;;;;;;;;;;;;;;;;;;;;
2022/12/31 13:08:31;;;;;;;12.57;2.28;;;13.40;99.90;;;;;;6228182;22;20022;-89
2022/12/31 13:12:07;;;;;;;11.15;1.98;;;13.30;99.90;;;;;;6301076;22;20391;-89
2022/12/31 13:15:08;;;;;;;14.45;1.98;;;13.20;99.90;;;;;;6395083;22;20028;-88
2022/12/31 13:18:38;;;;;;;;;;;;;;;;;;;;;
2022/12/31 13:36:16;;;;;;;11.35;1.88;;;13.20;99.90;;;;;;6157740;22;20107;-91
2022/12/31 13:39:16;;;;;;;11.25;2.25;;;13.10;99.90;;;;;;6237044;22;20013;-90
2022/12/31 13:41:55;;;;;;;18.13;2.13;;;13.10;99.90;;;;;;6236736;22;20287;-89
2022/12/31 13:44:30;;;;;;;;;;;12.90;99.90;;;;;;6262284;22;20088;-90
2022/12/31 13:47:07;;;;;;;14.43;2.30;;;13.00;99.90;;;;;;6234982;22;20367;-90
2022/12/31 13:49:49;;;;;;;9.82;1.92;;;12.90;99.90;;;;;;6237542;22;20017;-89
2022/12/31 13:52:37;;;;;;;11.93;2.50;;;13.00;99.90;;;;;;6236672;22;20045;-90
2022/12/31 13:55:14;;;;;;;16.90;2.00;;;12.90;99.90;;;;;;6235347;22;20259;-90
2022/12/31 13:57:45;;;;;;;13.00;2.28;;;12.80;99.90;;;;;;6236707;22;20395;-90
2022/12/31 14:00:28;;;;;;;11.68;1.77;;;12.70;99.90;;;;;;6239302;22;20014;-93
2022/12/31 14:02:58;;;;;;;9.18;1.67;;;12.70;99.90;;;;;;6238578;22;20018;-92
2022/12/31 14:05:32;;;;;;;9.88;1.63;;;12.70;99.90;;;;;;6238051;22;20088;-92
2022/12/31 14:08:00;;;;;;;10.60;1.45;;;12.60;99.90;;;;;;6238831;22;20100;-92
2022/12/31 14:10:39;;;;;;;8.50;1.30;;;12.70;99.90;;;;;;6238127;22;20458;-93
2022/12/31 14:13:30;;;;;;;10.73;1.40;;;12.50;99.90;;;;;;6237499;22;20014;-93
2022/12/31 14:26:40;;;;;;;8.10;1.40;;;12.60;99.90;;;;;;6251404;22;20025;-96
2022/12/31 14:29:33;;;;;;;5.97;1.45;;;12.50;99.90;;;;;;6239967;22;20018;-95
2022/12/31 14:32:42;;;;;;;7.45;1.40;;;12.60;99.90;;;;;;6236996;22;20018;-94
2022/12/31 14:42:36;;;;;;;7.32;1.63;;;12.50;99.90;;;;;;6179746;22;20575;-94
2022/12/31 14:46:09;;;;;;;3.50;1.05;;;12.60;99.90;;;;;;6236815;22;20098;-93
2022/12/31 14:49:00;;;;;;;5.03;1.05;;;12.40;99.90;;;;;;6263154;22;20442;-92
2022/12/31 14:51:34;;;;;;;5.57;0.90;;;12.40;99.90;;;;;;6237268;22;20087;-93
2022/12/31 14:54:53;;;;;;;4.32;0.93;;;12.50;99.90;;;;;;6249151;22;20516;-94
2022/12/31 14:57:38;;;;;;;3.70;0.98;;;12.10;99.90;;;;;;6276712;22;20029;-95
2022/12/31 15:01:43;;;;;;;4.25;1.20;;;12.50;99.90;;;;;;6236878;22;20014;-95
2022/12/31 15:03:49;;;;;;;6.05;1.35;;;12.50;99.90;;;;;;6266720;22;20386;-94
2022/12/31 15:07:31;;;;;;;4.82;1.60;;;12.40;99.90;;;;;;6274973;22;20041;-95
2022/12/31 15:10:17;;;;;;;4.70;1.57;;;12.30;99.90;;;;;;6261207;22;20030;-96
2022/12/31 15:14:15;;;;;;;3.47;0.90;;;12.50;99.90;;;;;;6292139;22;20014;-96
2022/12/31 15:17:57;;;;;;;2.67;0.50;;;12.50;99.90;;;;;;6372733;22;20025;-96
2022/12/31 15:21:09;;;;;;;;;;;;;;;;;;;;;
2022/12/31 15:24:16;;;;;;;0.90;0.45;;;12.20;99.90;;;;;;6386889;22;20097;-96
2022/12/31 15:27:43;;;;;;;;;;;;;;;;;;;;;
2022/12/31 16:07:20;;;;;;;;;;;;;;;;;;;;;
2022/12/31 16:18:51;;;;;;;;;;;;;;;;;;;;;
2022/12/31 16:22:09;;;;;;;;;;;;;;;;;;;;;
2022/12/31 16:26:03;;;;;;;9.23;2.25;;;11.90;99.90;;;;;;6068280;23;20415;-96
2022/12/31 16:53:10;;;;;;;16.52;4.13;;;12.70;99.90;;;;;;6250220;22;20413;-96
2022/12/31 16:56:05;;;;;;;11.52;4.55;;;12.50;99.90;;;;;;6236191;22;20486;-96
2022/12/31 16:58:43;;;;;;;13.70;4.20;;;12.60;99.90;;;;;;6225203;22;20057;-96
2022/12/31 17:01:22;;;;;;;12.98;4.72;;;12.60;99.90;;;;;;6233097;22;20026;-96
2022/12/31 17:04:30;;;;;;;18.45;4.70;;;12.70;99.90;;;;;;6239420;22;20116;-95
2022/12/31 17:07:45;;;;;;;15.13;5.05;;;12.70;99.90;;;;;;6261724;22;20077;-96
2022/12/31 17:11:02;;;;;;;16.83;4.65;;;12.40;99.90;;;;;;6241435;22;20015;-96
2022/12/31 17:17:48;;;;;;;16.10;4.60;;;12.40;99.90;;;;;;6263152;22;20083;-96
2022/12/31 17:20:32;;;;;;;19.50;5.03;;;12.60;99.90;;;;;;6221601;22;20100;-96
2022/12/31 17:23:51;;;;;;;13.02;4.03;;;12.50;99.90;;;;;;6238301;22;20039;-96
2022/12/31 17:26:50;;;;;;;;;;;;;;;;;;;;;
2022/12/31 17:29:58;;;;;;;18.52;5.68;;;12.70;99.90;;;;;;6264312;22;20019;-96
2022/12/31 17:33:20;;;;;;;22.23;6.13;;;12.70;99.90;;;;;;6175499;23;20077;-96
2022/12/31 17:39:29;;;;;;;12.38;5.40;;;12.70;99.90;;;;;;6250266;22;20095;-95
2022/12/31 17:42:57;;;;;;;16.00;5.43;;;12.80;99.90;;;;;;6284567;22;20094;-96
2022/12/31 17:59:58;;;;;;;16.63;5.57;;;13.10;99.90;;;;;;6183758;23;20040;-96
2022/12/31 18:02:29;;;;;;;22.52;6.53;;;12.90;99.90;;;;;;6135458;23;20020;-96
2022/12/31 18:05:01;;;;;;;16.42;6.93;;;12.80;99.90;;;;;;6183397;22;20027;-96
2022/12/31 18:07:27;;;;;;;22.33;7.60;;;12.90;99.90;;;;;;6248812;22;20336;-96
2022/12/31 18:09:58;;;;;;;17.20;7.07;;;13.00;99.90;;;;;;6218760;22;20015;-96
2022/12/31 18:12:27;;;;;;;19.45;8.60;;;13.20;99.90;;;;;;6216098;22;20016;-95
2022/12/31 18:14:52;;;;;;;22.75;8.50;;;12.80;99.90;;;;;;6215475;22;20523;-95
2022/12/31 18:17:18;;;;;;;25.60;9.50;;;12.80;99.90;;;;;;6214980;22;20016;-95
2022/12/31 18:19:44;;;;;;;22.73;8.95;;;12.90;99.90;;;;;;6216286;22;20023;-95
2022/12/31 18:22:14;;;;;;;21.05;9.13;;;12.80;99.90;;;;;;6216662;22;20058;-95
2022/12/31 18:24:41;;;;;;;19.77;8.23;;;12.90;99.90;;;;;;6217183;22;20313;-95
2022/12/31 18:27:17;;;;;;;21.08;9.10;;;12.90;99.90;;;;;;6217488;22;20470;-96
2022/12/31 18:30:15;;;;;;;22.23;8.57;;;12.90;99.90;;;;;;6223891;22;20096;-96
2022/12/31 18:32:46;;;;;;;18.08;8.23;;;13.20;99.90;;;;;;6227851;22;20016;-95
2022/12/31 18:35:18;;;;;;;20.25;9.43;;;12.60;99.90;;;;;;6218826;22;20071;-96
2022/12/31 18:38:19;;;;;;;23.40;8.90;;;12.90;99.90;;;;;;6258606;22;20364;-96
2022/12/31 18:41:40;;;;;;;22.27;8.73;;;13.00;99.90;;;;;;6230826;22;20045;-96
2022/12/31 18:43:54;;;;;;;25.98;9.48;;;12.90;99.90;;;;;;6243778;22;20615;-96
2022/12/31 18:46:24;;;;;;;23.55;9.32;;;12.90;99.90;;;;;;6218421;22;20519;-96
2022/12/31 18:48:50;;;;;;;25.85;10.02;;;12.90;99.90;;;;;;6219308;22;20327;-96
2022/12/31 18:51:23;;;;;;;22.58;9.23;;;13.00;99.90;;;;;;6220574;22;20016;-96
2022/12/31 18:54:05;;;;;;;19.75;9.32;;;12.70;99.90;;;;;;6256101;22;20112;-96
2022/12/31 18:59:56;;;;;;;;;;;;;;;;;;;;;
2022/12/31 19:02:57;;;;;;;20.40;8.30;;;12.90;99.90;;;;;;6276997;22;20020;-96
2022/12/31 19:09:43;;;;;;;21.77;8.63;;;12.90;99.90;;;;;;6158086;22;20032;-96
2022/12/31 19:12:00;;;;;;;20.27;9.55;;;13.10;99.90;;;;;;6156680;22;20021;-96
2022/12/31 19:14:28;;;;;;;20.30;8.65;;;13.00;99.90;;;;;;6156365;23;20016;-95
2022/12/31 19:17:01;;;;;;;27.38;8.48;;;12.90;99.90;;;;;;6150007;23;20476;-95
2022/12/31 19:19:37;;;;;;;25.88;9.48;;;12.70;99.90;;;;;;6198481;22;20030;-95
2022/12/31 19:22:13;;;;;;;24.83;9.40;;;12.70;99.90;;;;;;6215632;22;20071;-95
2022/12/31 19:25:14;;;;;;;22.40;8.30;;;13.00;99.90;;;;;;6221420;22;20064;-96
2022/12/31 19:27:39;;;;;;;21.70;8.52;;;13.20;99.90;;;;;;6216572;22;20024;-93
2022/12/31 19:30:10;;;;;;;16.75;7.60;;;13.00;99.90;;;;;;6214742;22;20027;-94
2022/12/31 19:32:35;;;;;;;20.88;8.23;;;13.00;99.90;;;;;;6216059;22;20019;-95
2022/12/31 19:35:01;;;;;;;22.45;7.82;;;13.20;99.90;;;;;;6214773;22;20054;-93
2022/12/31 19:37:27;;;;;;;23.00;8.57;;;13.20;99.90;;;;;;6317872;22;20022;-93
2022/12/31 19:39:52;;;;;;;18.17;7.20;;;13.20;99.90;;;;;;6370405;22;20383;-94
2022/12/31 19:42:18;;;;;;;16.60;7.18;;;13.30;99.90;;;;;;6368626;22;20100;-94
2022/12/31 19:44:44;;;;;;;20.15;7.97;;;13.20;99.90;;;;;;6370342;22;20058;-94
2022/12/31 19:47:12;;;;;;;18.05;6.88;;;13.20;99.90;;;;;;6370657;22;20010;-94
2022/12/31 19:49:38;;;;;;;25.95;7.22;;;13.30;99.90;;;;;;6369912;22;20121;-95
2022/12/31 19:52:03;;;;;;;16.73;6.50;;;13.30;99.90;;;;;;6370057;22;20430;-95
2022/12/31 19:54:32;;;;;;;21.73;6.30;;;13.40;99.90;;;;;;6370733;22;20096;-94
2022/12/31 19:57:01;;;;;;;15.90;6.30;;;13.40;99.90;;;;;;6368228;22;20104;-94
2022/12/31 19:59:27;;;;;;;17.05;5.88;;;13.40;99.90;;;;;;6370627;22;20052;-94
2022/12/31 20:01:52;;;;;;;12.27;5.65;;;13.40;99.90;;;;;;6369705;22;20018;-92
2022/12/31 20:04:20;;;;;;;17.27;5.93;;;13.40;99.90;;;;;;6369426;22;20049;-94
2022/12/31 20:06:46;;;;;;;18.67;6.13;;;13.40;99.90;;;;;;6369854;22;20014;-93
2022/12/31 20:09:12;;;;;;;15.57;5.78;;;13.50;99.90;;;;;;6369921;22;20221;-94
2022/12/31 20:11:37;;;;;;;14.88;5.90;;;13.50;99.90;;;;;;6370505;22;20035;-93
2022/12/31 20:14:03;;;;;;;16.50;6.38;;;13.50;99.90;;;;;;6369154;22;20018;-93
2022/12/31 20:16:30;;;;;;;16.85;6.07;;;13.50;99.90;;;;;;6369136;22;20017;-93
2022/12/31 20:18:56;;;;;;;14.55;5.80;;;13.50;99.90;;;;;;6369185;22;20066;-93
2022/12/31 20:21:24;;;;;;;17.70;6.45;;;13.50;99.90;;;;;;6369919;22;20014;-94
2022/12/31 20:23:52;;;;;;;17.40;5.47;;;13.50;99.90;;;;;;6369064;22;20066;-94
2022/12/31 20:26:19;;;;;;;16.55;5.28;;;13.50;99.90;;;;;;6369860;22;20018;-94
2022/12/31 20:28:44;;;;;;;19.33;5.85;;;13.50;99.90;;;;;;6368633;22;20018;-92
2022/12/31 20:31:13;;;;;;;20.35;5.82;;;13.50;99.90;;;;;;6369563;22;20472;-93
2022/12/31 20:33:39;;;;;;;18.85;5.80;;;13.50;99.90;;;;;;6369948;22;20013;-92
2022/12/31 20:36:07;;;;;;;20.00;6.38;;;13.50;99.90;;;;;;6352386;22;20025;-92
2022/12/31 20:38:33;;;;;;;16.55;5.82;;;13.50;99.90;;;;;;6184489;22;20012;-94
2022/12/31 20:41:05;;;;;;;18.13;6.20;;;13.50;99.90;;;;;;6184853;23;20042;-93
2022/12/31 20:43:32;;;;;;;18.77;5.65;;;13.50;99.90;;;;;;6184619;22;20019;-94
2022/12/31 20:46:06;;;;;;;19.00;5.82;;;13.60;99.90;;;;;;6184355;23;20051;-93
2022/12/31 20:48:32;;;;;;;19.70;5.88;;;13.60;99.90;;;;;;6185980;22;20020;-94
2022/12/31 20:51:01;;;;;;;18.40;6.10;;;13.90;99.90;;;;;;6186216;23;20028;-94
2022/12/31 20:53:27;;;;;;;18.60;5.55;;;13.60;99.90;;;;;;6184299;23;20016;-93
2022/12/31 20:55:55;;;;;;;21.85;5.85;;;13.60;99.90;;;;;;6186410;22;20124;-94
2022/12/31 20:58:21;;;;;;;17.75;5.10;;;13.70;99.90;;;;;;6184660;23;20016;-93
2022/12/31 21:00:49;;;;;;;17.35;4.95;;;13.70;99.90;;;;;;6184620;23;20391;-94
2022/12/31 21:03:17;;;;;;;16.58;5.80;;;13.70;99.90;;;;;;6185140;23;20024;-94
2022/12/31 21:05:49;;;;;;;22.75;5.45;;;13.70;99.90;;;;;;6184290;23;20506;-93
2022/12/31 21:08:15;;;;;;;11.53;4.27;;;13.70;99.90;;;;;;6185550;22;20012;-93
2022/12/31 21:10:40;;;;;;;18.15;4.50;;;13.70;99.90;;;;;;6185645;23;20081;-93
2022/12/31 21:13:06;;;;;;;17.33;5.13;;;13.80;99.90;;;;;;6184085;23;20065;-94
2022/12/31 21:15:35;;;;;;;20.15;5.22;;;13.70;99.90;;;;;;6185639;23;20465;-93
2022/12/31 21:18:00;;;;;;;12.48;4.75;;;13.70;99.90;;;;;;6185403;23;20030;-95
2022/12/31 21:20:27;;;;;;;18.23;4.75;;;13.70;99.90;;;;;;6184691;23;20016;-95
2022/12/31 21:22:52;;;;;;;17.27;4.30;;;13.70;99.90;;;;;;6184800;23;20065;-94
2022/12/31 21:25:18;;;;;;;19.08;4.55;;;13.70;99.90;;;;;;6185298;22;20058;-95
2022/12/31 21:27:44;;;;;;;13.18;5.22;;;13.70;99.90;;;;;;6183924;23;20544;-95
2022/12/31 21:30:11;;;;;;;16.77;4.35;;;13.70;99.90;;;;;;6185780;23;20040;-93
2022/12/31 21:32:37;;;;;;;14.75;4.95;;;13.70;99.90;;;;;;6185119;22;20027;-92
2022/12/31 21:35:03;;;;;;;21.73;5.40;;;13.70;99.90;;;;;;6183698;23;20016;-93
2022/12/31 21:37:29;;;;;;;15.27;7.15;;;13.70;99.90;;;;;;6309496;22;20018;-91
2022/12/31 21:39:55;;;;;;;16.73;5.10;;;13.70;99.90;;;;;;6368718;22;20472;-95
2022/12/31 21:42:21;;;;;;;14.75;4.60;;;13.60;99.90;;;;;;6368139;22;20097;-94
2022/12/31 21:44:49;;;;;;;19.88;5.00;;;13.70;99.90;;;;;;6368850;22;20014;-94
2022/12/31 21:49:59;;;;;;;18.88;4.65;;;13.60;99.90;;;;;;6395115;22;20303;-94
2022/12/31 21:52:24;;;;;;;17.45;4.57;;;13.60;99.90;;;;;;6370309;22;20026;-95
2022/12/31 21:57:36;;;;;;;19.70;4.68;;;13.60;99.90;;;;;;6397627;22;20022;-91
2022/12/31 22:05:32;;;;;;;15.32;4.90;;;13.50;99.90;;;;;;6398307;22;20070;-94
2022/12/31 22:07:58;;;;;;;18.13;4.97;;;13.50;99.90;;;;;;6371352;22;20347;-94
2022/12/31 22:10:23;;;;;;;21.00;4.80;;;13.50;99.90;;;;;;6370806;22;20088;-93
2022/12/31 22:12:49;;;;;;;25.48;6.22;;;13.50;99.90;;;;;;6370058;22;20006;-93
2022/12/31 22:15:15;;;;;;;13.95;5.00;;;13.50;99.90;;;;;;6371419;22;20020;-94
2022/12/31 22:17:41;;;;;;;20.65;5.43;;;13.50;99.90;;;;;;6370647;22;20021;-94
2022/12/31 22:20:07;;;;;;;19.95;5.38;;;13.50;99.90;;;;;;6370976;22;20075;-93
2022/12/31 22:22:33;;;;;;;17.67;5.50;;;13.50;99.90;;;;;;6371423;22;20028;-94
2022/12/31 22:24:59;;;;;;;18.20;4.80;;;13.50;99.90;;;;;;6369955;22;20014;-91
2022/12/31 22:27:24;;;;;;;19.02;5.22;;;13.50;99.90;;;;;;6370945;22;20052;-92
2022/12/31 22:29:50;;;;;;;19.83;5.10;;;13.50;99.90;;;;;;6371014;22;20032;-92
2022/12/31 22:32:15;;;;;;;16.98;5.65;;;13.50;99.90;;;;;;6370587;22;20507;-93
2022/12/31 22:34:41;;;;;;;25.27;5.63;;;13.50;99.90;;;;;;6370224;22;20014;-92
2022/12/31 22:37:07;;;;;;;23.05;4.63;;;13.60;99.90;;;;;;6370113;22;20014;-94
2022/12/31 22:39:32;;;;;;;17.70;5.20;;;13.60;99.90;;;;;;6371254;22;20006;-94
2022/12/31 22:41:58;;;;;;;19.60;5.70;;;13.60;99.90;;;;;;6370113;22;20334;-93
2022/12/31 22:44:24;;;;;;;16.83;5.15;;;13.60;99.90;;;;;;6370732;22;20018;-93
2022/12/31 22:46:49;;;;;;;15.65;4.60;;;13.60;99.90;;;;;;6370384;22;20029;-93
2022/12/31 22:49:16;;;;;;;21.35;5.13;;;13.50;99.90;;;;;;6371553;22;20014;-94
2022/12/31 22:51:42;;;;;;;19.05;4.72;;;13.60;99.90;;;;;;6371109;22;20437;-92
2022/12/31 22:54:09;;;;;;;16.35;4.88;;;13.60;99.90;;;;;;6370659;22;20089;-94
2022/12/31 22:56:35;;;;;;;14.15;4.20;;;13.60;99.90;;;;;;6371102;22;20022;-92
2022/12/31 22:59:01;;;;;;;20.95;4.82;;;13.60;99.90;;;;;;6395023;22;20430;-94
2022/12/31 23:01:26;;;;;;;18.88;5.78;;;13.60;99.90;;;;;;6371568;22;20017;-92
2022/12/31 23:03:53;;;;;;;17.58;5.00;;;13.60;99.90;;;;;;6369566;22;20382;-91
2022/12/31 23:06:21;;;;;;;21.08;5.32;;;13.60;99.90;;;;;;6370599;22;20018;-93
2022/12/31 23:11:50;;;;;;;19.63;7.07;;;13.60;99.90;;;;;;6396056;22;20331;-91
2022/12/31 23:25:13;;;;;;;24.15;7.95;;;13.60;99.90;;;;;;6397162;22;20053;-93
2022/12/31 23:27:38;;;;;;;18.48;7.57;;;13.60;99.90;;;;;;6369306;22;20070;-92
2022/12/31 23:30:05;;;;;;;21.35;8.43;;;13.60;99.90;;;;;;6369997;22;20017;-92
2022/12/31 23:32:30;;;;;;;22.10;9.32;;;13.60;99.90;;;;;;6370859;22;20461;-92
2022/12/31 23:34:56;;;;;;;24.08;8.02;;;13.60;99.90;;;;;;6368798;22;20018;-92
2022/12/31 23:37:22;;;;;;;21.63;7.20;;;13.60;99.90;;;;;;6369952;22;20014;-92
2022/12/31 23:39:48;;;;;;;20.95;8.52;;;13.60;99.90;;;;;;6370028;22;20150;-93
2022/12/31 23:42:13;;;;;;;21.58;7.70;;;13.60;99.90;;;;;;6368709;22;20332;-94
2022/12/31 23:44:39;;;;;;;17.42;6.88;;;13.60;99.90;;;;;;6370590;22;20013;-93
2022/12/31 23:47:05;;;;;;;23.63;7.32;;;13.60;99.90;;;;;;6370147;22;20433;-95
2022/12/31 23:49:30;;;;;;;19.25;7.82;;;13.60;99.90;;;;;;6369655;22;20096;-92
2022/12/31 23:51:56;;;;;;;23.60;8.13;;;13.70;99.90;;;;;;6370138;22;20024;-93
2022/12/31 23:54:24;;;;;;;23.48;7.95;;;13.70;99.90;;;;;;6369430;22;20017;-94
2022/12/31 23:56:50;;;;;;;30.02;8.23;;;13.60;99.90;;;;;;6369203;22;20026;-93
2022/12/31 23:59:17;;;;;;;23.90;9.02;;;13.60;99.90;;;;;;6370402;22;20010;-93
